EmailTwitter


Observations de surface / Québec / CYHU (71371)

Régions: Québec | Canada | États-Unis | Europe | France | UK | Ailleurs
Station
Affichage
Infos & localisation pour CYHU (71371) | Aide pour décoder les METARs

Observations prises le 2017-07-23 à 14H00 UTC à MONTREAL/ST HUBE, QB (CYHU)

Etat du ciel: dégagé.

Température: 20.0 Celsius

Point de rosée: 8.0 Celsius

Humidité relative: 46%

Vents: Nord-est à 15 km/h ou 8 noeuds.

Pression au niveau moyen de la mer: 101.30 kilopascals.

Calage altimétrique: 101.29 kilopascals ou 29.91 pouces de mercure.

Visibilité horizontale: 9.00 milles terrestres ou 14.40 kilomètres.

Observation METAR:

CYHU 231400Z AUTO 05008KT 9SM CLR 20/08 A2991 RMK SLP130 DENSITY ALT 700FT=